Capitol Logistics 95




RKSI
Incheon International Airport
Seoul, KR
KLAX
Los Angeles International Airport
Los Angeles, US

Route Details

Aircraft Information
Group: Large Widebodies
Types: B744,MD11
Route Data
Demand: H
Distance: 5203nm
Duration: 10h 34m
Recm'd Route: EGOBA1A EGOBA Y697 LANAT Y51 SAMON Y142 GTC R217 ELDAK Y512 ADNAP OTR7 EMRON 4300N/16000E 4600N/17000E 4800N/18000E 4800N/17000W 4700N/16000W 4700N/15000W 4500N/14000W 4320N/13528W 4100N/13000W FATMO PAINT PIRAT BURGL ZUUMA3
Origin Wx: RKSI 272200Z 15007KT 3500 BR FEW007 SCT180 17/15 Q1004 NOSIG
Dest. Wx: KLAX 272153Z 24014KT 10SM FEW026 FEW034 BKN150 21/12 A3002 RMK AO2 SLP165 T02060117
Notes:

Financial History
Total Freight: 444,593lbs
Average Load: 222,297lbs/flt
Fuel Used: 532,003lbs
Avg. Fuel Used: 266,002lbs/flt
Fuel Expense: $148,961
Avg. Fuel Expense: $74,480
Avg. Fuel Cost: $0.28/lbs
Total Gross Income: $1,342,671
Pilot Pay: $478
Total Expenses: $167,344
Total Revenue: $1,021,394
Average Revenue: $671,335.44